createdAt,value
2018-10-12T00:01:54.993Z,27.60
2018-10-12T00:04:34.875Z,26.47
2018-10-12T00:07:08.460Z,26.73
2018-10-12T00:09:42.840Z,27.47
2018-10-12T00:12:16.450Z,26.17
2018-10-12T00:14:49.923Z,31.77
2018-10-12T00:17:23.446Z,31.50
2018-10-12T00:19:56.816Z,31.00
2018-10-12T00:22:36.570Z,25.37
2018-10-12T00:25:10.066Z,30.93
2018-10-12T00:27:44.742Z,25.57
2018-10-12T00:30:18.317Z,31.27
2018-10-12T00:32:52.008Z,27.47
2018-10-12T00:35:26.548Z,28.60
2018-10-12T00:37:59.997Z,26.00
2018-10-12T00:40:33.516Z,27.53
2018-10-12T00:43:13.346Z,24.57
2018-10-12T00:45:53.330Z,29.53
2018-10-12T00:48:27.801Z,29.00
2018-10-12T00:51:01.411Z,25.83
2018-10-12T00:53:34.940Z,26.73
2018-10-12T00:56:08.447Z,29.83
2018-10-12T00:58:42.000Z,29.77
2018-10-12T01:01:21.953Z,29.40
2018-10-12T01:03:55.363Z,31.50
2018-10-12T01:06:35.351Z,31.00
2018-10-12T01:09:08.739Z,33.57
2018-10-12T01:11:42.329Z,30.07
2018-10-12T01:14:15.844Z,31.70
2018-10-12T01:16:49.364Z,31.47
2018-10-12T01:19:22.967Z,34.60
2018-10-12T01:21:56.512Z,28.90
2018-10-12T01:24:29.907Z,34.20
2018-10-12T01:27:06.539Z,29.30
2018-10-12T01:29:40.126Z,28.13
2018-10-12T01:32:18.392Z,33.20
2018-10-12T01:34:52.360Z,27.10
2018-10-12T01:37:26.154Z,31.23
2018-10-12T01:40:04.671Z,29.57
2018-10-12T01:42:38.137Z,30.90
2018-10-12T01:45:11.642Z,29.73
2018-10-12T01:47:45.093Z,30.97
2018-10-12T01:52:59.039Z,31.77
2018-10-12T01:55:32.689Z,29.67
2018-10-12T01:58:06.196Z,32.43
2018-10-12T02:00:40.753Z,33.33
2018-10-12T02:03:14.170Z,28.37
2018-10-12T02:05:47.763Z,29.53
2018-10-12T02:08:21.218Z,30.23
2018-10-12T02:10:54.814Z,28.37
2018-10-12T02:13:28.287Z,33.43
2018-10-12T02:16:01.777Z,31.57
2018-10-12T02:18:38.227Z,26.67
2018-10-12T02:21:11.879Z,33.43
2018-10-12T02:23:45.365Z,34.77
2018-10-12T02:26:18.985Z,30.17
2018-10-12T02:28:52.472Z,26.87
2018-10-12T02:31:32.666Z,31.60
2018-10-12T02:34:06.112Z,28.23
2018-10-12T02:36:39.560Z,34.53
2018-10-12T02:39:14.530Z,32.53
2018-10-12T02:41:48.091Z,29.00
2018-10-12T02:44:21.527Z,32.40
2018-10-12T02:46:54.975Z,33.60
2018-10-12T02:49:28.474Z,29.60
2018-10-12T02:52:02.989Z,29.30
2018-10-12T02:54:36.417Z,29.87
2018-10-12T02:57:16.397Z,29.03
2018-10-12T02:59:49.878Z,30.33
2018-10-12T03:02:23.419Z,32.63
2018-10-12T03:04:56.845Z,34.73
2018-10-12T03:07:30.351Z,33.80
2018-10-12T03:10:04.976Z,28.70
2018-10-12T03:12:38.825Z,29.83
2018-10-12T03:15:12.364Z,34.27
2018-10-12T03:17:45.931Z,31.43
2018-10-12T03:20:19.527Z,35.20
2018-10-12T03:22:53.028Z,27.77
2018-10-12T03:25:26.577Z,31.37
2018-10-12T03:28:11.849Z,29.37
2018-10-12T03:30:45.325Z,31.33
2018-10-12T03:33:18.863Z,31.30
2018-10-12T03:35:52.365Z,31.37
2018-10-12T03:38:26.617Z,27.67
2018-10-12T03:41:00.218Z,30.83
2018-10-12T03:43:33.744Z,31.93
2018-10-12T03:46:07.385Z,31.97
2018-10-12T03:48:40.873Z,35.23
2018-10-12T03:51:14.238Z,27.70
2018-10-12T03:53:47.805Z,32.37
2018-10-12T03:56:21.401Z,30.17
2018-10-12T03:58:55.078Z,34.03
2018-10-12T04:01:28.598Z,31.00
2018-10-12T04:04:01.972Z,29.07
2018-10-12T04:06:35.438Z,29.63
2018-10-12T04:09:15.426Z,32.87
2018-10-12T04:11:55.251Z,35.90
2018-10-12T04:14:28.630Z,30.87
2018-10-12T04:17:02.018Z,30.57
2018-10-12T04:19:42.063Z,29.23
2018-10-12T04:22:19.731Z,29.97
2018-10-12T04:24:53.202Z,29.50
2018-10-12T04:27:33.056Z,29.33
2018-10-12T04:30:08.873Z,27.40
2018-10-12T04:32:48.688Z,30.07
2018-10-12T04:35:26.299Z,31.67
2018-10-12T04:37:59.852Z,27.73
2018-10-12T04:41:23.011Z,27.87
2018-10-12T04:43:58.239Z,35.30
2018-10-12T04:46:39.538Z,28.60
2018-10-12T04:49:19.538Z,28.10
2018-10-12T04:51:54.706Z,29.00
2018-10-12T04:54:28.301Z,26.53
2018-10-12T04:57:02.049Z,26.17
2018-10-12T04:59:35.603Z,23.73
2018-10-12T05:02:15.309Z,24.33
2018-10-12T05:04:48.894Z,24.33
2018-10-12T05:07:28.733Z,26.80
2018-10-12T05:10:02.291Z,27.13
2018-10-12T05:12:42.317Z,29.70
2018-10-12T05:15:15.937Z,26.53
2018-10-12T05:17:49.382Z,29.97
2018-10-12T05:20:22.966Z,23.87
2018-10-12T05:23:02.994Z,27.73
2018-10-12T05:25:36.475Z,26.03
2018-10-12T05:28:16.511Z,26.83
2018-10-12T05:30:50.016Z,27.90
2018-10-12T05:33:23.462Z,25.03
2018-10-12T05:35:57.042Z,30.60
2018-10-12T05:38:36.938Z,25.53
2018-10-12T05:41:16.891Z,23.80
2018-10-12T05:43:50.470Z,25.20
2018-10-12T05:46:23.985Z,28.07
2018-10-12T05:49:09.242Z,28.00
2018-10-12T05:51:42.752Z,28.07
2018-10-12T05:54:22.550Z,28.33
2018-10-12T05:56:56.170Z,34.60
2018-10-12T05:59:29.710Z,29.83
2018-10-12T06:02:09.689Z,27.00
2018-10-12T06:04:43.174Z,30.27
2018-10-12T06:07:23.077Z,27.80
2018-10-12T06:10:03.077Z,31.40
2018-10-12T06:12:36.658Z,36.00
2018-10-12T06:15:10.008Z,33.13
2018-10-12T06:17:43.819Z,29.47
2018-10-12T06:20:23.716Z,29.23
2018-10-12T06:22:57.297Z,28.07
2018-10-12T06:25:30.749Z,29.03
2018-10-12T06:28:10.495Z,31.73
2018-10-12T06:30:44.074Z,31.93
2018-10-12T06:33:17.673Z,34.17
2018-10-12T06:35:57.535Z,28.17
2018-10-12T06:38:31.093Z,28.20
2018-10-12T06:41:04.815Z,36.50
2018-10-12T06:43:38.261Z,30.13
2018-10-12T06:46:18.129Z,26.57
2018-10-12T06:48:51.724Z,25.80
2018-10-12T06:51:31.701Z,31.97
2018-10-12T06:54:11.875Z,25.67
2018-10-12T06:56:47.009Z,27.50
2018-10-12T06:59:21.421Z,29.90
2018-10-12T07:01:54.994Z,27.17
2018-10-12T07:04:35.169Z,29.90
2018-10-12T07:07:08.729Z,24.50
2018-10-12T07:09:42.305Z,23.37
2018-10-12T07:12:15.999Z,27.47
2018-10-12T07:14:50.365Z,24.10
2018-10-12T07:17:24.006Z,28.20
2018-10-12T07:19:57.476Z,20.63
2018-10-12T07:22:37.384Z,22.93
2018-10-12T07:25:10.926Z,22.07
2018-10-12T07:27:44.305Z,24.27
2018-10-12T07:30:17.900Z,25.90
2018-10-12T07:32:51.420Z,25.57
2018-10-12T07:35:24.986Z,22.03
2018-10-12T07:37:58.651Z,20.77
2018-10-12T07:40:32.333Z,21.37
2018-10-12T07:43:05.704Z,18.53
2018-10-12T07:45:45.610Z,19.37
2018-10-12T07:48:19.287Z,17.53
2018-10-12T07:50:58.894Z,18.17
2018-10-12T07:53:33.407Z,21.67
2018-10-12T07:56:08.034Z,18.97
2018-10-12T07:58:41.672Z,16.17
2018-10-12T08:01:17.264Z,24.53
2018-10-12T08:03:51.060Z,15.97
2018-10-12T08:06:24.843Z,19.20
2018-10-12T08:08:58.368Z,14.03
2018-10-12T08:11:38.601Z,18.30
2018-10-12T08:14:18.445Z,20.63
2018-10-12T08:16:51.825Z,16.47
2018-10-12T08:19:31.818Z,20.73
2018-10-12T08:22:11.536Z,21.03
2018-10-12T08:24:45.037Z,11.37
2018-10-12T08:27:18.498Z,13.03
2018-10-12T08:29:51.936Z,17.43
2018-10-12T08:32:25.630Z,11.63
2018-10-12T08:35:00.009Z,12.77
2018-10-12T08:37:33.523Z,18.27
2018-10-12T08:40:10.128Z,12.33
2018-10-12T08:42:43.891Z,11.10
2018-10-12T08:45:23.705Z,11.33
2018-10-12T08:48:03.568Z,10.97
2018-10-12T08:50:38.075Z,7.70
2018-10-12T08:53:12.646Z,8.07
2018-10-12T08:55:46.240Z,7.97
2018-10-12T08:58:19.681Z,8.87
2018-10-12T09:00:53.265Z,6.83
2018-10-12T09:03:26.714Z,15.93
2018-10-12T09:06:00.213Z,5.92
2018-10-12T09:08:34.569Z,9.98
2018-10-12T09:11:08.200Z,6.17
2018-10-12T09:13:41.908Z,5.55
2018-10-12T09:16:21.872Z,7.53
2018-10-12T09:18:55.483Z,7.13
2018-10-12T09:21:30.748Z,10.08
2018-10-12T09:24:10.888Z,9.23
2018-10-12T09:26:50.865Z,4.03
2018-10-12T09:29:24.377Z,5.92
2018-10-12T09:32:04.323Z,5.22
2018-10-12T09:34:44.041Z,4.80
2018-10-12T09:37:25.054Z,5.55
2018-10-12T09:40:04.882Z,4.53
2018-10-12T09:42:38.340Z,7.05
2018-10-12T09:45:18.258Z,5.33
2018-10-12T09:47:51.589Z,6.58
2018-10-12T09:50:25.168Z,5.72
2018-10-12T09:52:58.493Z,5.42
2018-10-12T09:55:32.750Z,3.00
2018-10-12T09:58:12.861Z,11.95
2018-10-12T10:00:52.172Z,6.12
2018-10-12T10:03:31.261Z,6.62
2018-10-12T10:06:04.846Z,5.80
2018-10-12T10:08:38.655Z,4.55
2018-10-12T10:11:12.062Z,3.47
2018-10-12T10:13:45.769Z,6.45
2018-10-12T10:16:20.274Z,7.00
2018-10-12T10:18:53.758Z,4.83
2018-10-12T10:21:27.441Z,5.83
2018-10-12T10:24:07.337Z,5.78
2018-10-12T10:26:40.886Z,4.92
2018-10-12T10:29:20.850Z,7.37
2018-10-12T10:31:54.405Z,10.90
2018-10-12T10:34:34.316Z,6.47
2018-10-12T10:37:07.958Z,9.85
2018-10-12T10:39:41.809Z,5.75
2018-10-12T10:42:15.542Z,7.85
2018-10-12T10:44:49.074Z,6.78
2018-10-12T10:47:29.049Z,5.10
2018-10-12T10:50:02.782Z,7.62
2018-10-12T10:52:36.417Z,5.78
2018-10-12T10:55:10.190Z,9.58
2018-10-12T10:57:44.810Z,6.15
2018-10-12T11:00:18.466Z,3.55
2018-10-12T11:02:52.137Z,5.35
2018-10-12T11:05:25.813Z,6.22
2018-10-12T11:08:00.358Z,9.10
2018-10-12T11:10:34.118Z,6.30
2018-10-12T11:13:07.582Z,5.87
2018-10-12T11:15:41.400Z,6.75
2018-10-12T11:18:16.109Z,6.03
2018-10-12T11:20:55.996Z,7.70
2018-10-12T11:23:36.049Z,4.60
2018-10-12T11:26:15.992Z,7.30
2018-10-12T11:28:49.550Z,8.90
2018-10-12T11:31:23.255Z,4.60
2018-10-12T11:33:56.871Z,7.58
2018-10-12T11:36:36.868Z,6.65
2018-10-12T11:39:12.367Z,5.58
2018-10-12T11:41:46.008Z,8.03
2018-10-12T11:44:25.843Z,5.30
2018-10-12T11:46:59.488Z,10.93
2018-10-12T11:49:33.072Z,4.53
2018-10-12T11:52:06.810Z,5.55
2018-10-12T11:54:40.327Z,5.33
2018-10-12T11:57:13.891Z,5.80
2018-10-12T11:59:47.497Z,4.30
2018-10-12T12:02:27.463Z,7.58
2018-10-12T12:05:01.068Z,8.00
2018-10-12T12:07:40.993Z,12.10
2018-10-12T12:10:14.611Z,5.55
2018-10-12T12:12:48.165Z,7.47
2018-10-12T12:15:28.224Z,7.10
2018-10-12T12:18:08.102Z,3.98
2018-10-12T12:20:41.722Z,4.08
2018-10-12T12:23:15.452Z,9.48
2018-10-12T12:25:49.174Z,6.65
2018-10-12T12:28:29.172Z,4.78
2018-10-12T12:31:02.787Z,6.20
2018-10-12T12:33:36.380Z,5.60
2018-10-12T12:36:10.193Z,3.15
2018-10-12T12:38:45.177Z,3.77
2018-10-12T12:41:18.556Z,6.45
2018-10-12T12:43:53.000Z,4.30
2018-10-12T12:46:26.721Z,7.67
2018-10-12T12:49:07.288Z,2.80
2018-10-12T12:51:40.613Z,4.20
2018-10-12T12:54:15.037Z,3.05
2018-10-12T12:56:48.586Z,3.72
2018-10-12T12:59:28.650Z,4.62
2018-10-12T13:02:02.200Z,5.15
2018-10-12T13:04:35.779Z,4.00
2018-10-12T13:07:16.653Z,3.75
2018-10-12T13:09:50.511Z,17.95
2018-10-12T13:12:30.576Z,4.83
2018-10-12T13:15:04.760Z,7.90
2018-10-12T13:17:38.136Z,5.40
2018-10-12T13:20:11.567Z,4.58
2018-10-12T13:22:49.274Z,5.28
2018-10-12T13:25:29.190Z,5.12
2018-10-12T13:28:03.706Z,4.17
2018-10-12T13:30:37.313Z,9.63
2018-10-12T13:33:10.960Z,4.10
2018-10-12T13:35:44.348Z,7.97
2018-10-12T13:38:24.408Z,4.67
2018-10-12T13:40:57.999Z,8.63
2018-10-12T13:43:31.633Z,6.08
2018-10-12T13:46:05.102Z,5.47
2018-10-12T13:48:38.833Z,8.28
2018-10-12T13:51:12.571Z,3.25
2018-10-12T13:53:52.414Z,5.97
2018-10-12T13:56:26.055Z,5.33
2018-10-12T13:59:06.076Z,4.37
2018-10-12T14:01:46.030Z,12.00
2018-10-12T14:04:19.567Z,6.83
2018-10-12T14:06:53.284Z,6.25
2018-10-12T14:09:27.364Z,8.30
2018-10-12T14:12:07.690Z,15.75
2018-10-12T14:14:41.296Z,8.78
2018-10-12T14:17:15.802Z,4.33
2018-10-12T14:19:55.791Z,7.85
2018-10-12T14:22:29.406Z,8.60
2018-10-12T14:25:03.104Z,6.45
2018-10-12T14:27:36.606Z,8.30
2018-10-12T14:30:16.518Z,4.92
2018-10-12T14:32:56.350Z,10.70
2018-10-12T14:35:30.193Z,5.58
2018-10-12T14:38:10.099Z,8.13
2018-10-12T14:40:43.654Z,3.98
2018-10-12T14:43:23.618Z,5.10
2018-10-12T14:45:57.193Z,10.95
2018-10-12T14:48:30.718Z,8.20
2018-10-12T14:51:04.194Z,7.50
2018-10-12T14:53:37.789Z,3.70
2018-10-12T14:56:11.318Z,5.53
2018-10-12T14:58:51.128Z,3.95
2018-10-12T15:01:30.873Z,7.90
2018-10-12T15:04:05.652Z,6.22
2018-10-12T15:06:39.254Z,8.65
2018-10-12T15:09:19.228Z,6.00
2018-10-12T15:11:52.705Z,4.17
2018-10-12T15:14:44.283Z,5.00
2018-10-12T15:17:24.092Z,8.48
2018-10-12T15:20:04.001Z,6.12
2018-10-12T15:22:37.360Z,8.58
2018-10-12T15:25:17.585Z,5.00
2018-10-12T15:27:50.982Z,12.45
2018-10-12T15:30:24.632Z,5.35
2018-10-12T15:32:58.315Z,6.15
2018-10-12T15:35:32.013Z,11.80
2018-10-12T15:38:05.367Z,6.45
2018-10-12T15:40:39.366Z,7.65
2018-10-12T15:43:19.319Z,9.00
2018-10-12T15:45:59.141Z,9.23
2018-10-12T15:48:32.741Z,5.30
2018-10-12T15:51:06.346Z,7.72
2018-10-12T15:53:39.929Z,7.00
2018-10-12T15:56:13.366Z,8.75
2018-10-12T15:58:47.866Z,8.25
2018-10-12T16:01:21.769Z,8.58
2018-10-12T16:03:55.361Z,10.10
2018-10-12T16:06:28.925Z,9.98
2018-10-12T16:09:02.533Z,8.23
2018-10-12T16:11:42.445Z,8.70
2018-10-12T16:14:22.360Z,10.30
2018-10-12T16:17:02.363Z,4.75
2018-10-12T16:19:35.783Z,9.20
2018-10-12T16:22:09.877Z,8.20
2018-10-12T16:24:54.919Z,7.12
2018-10-12T16:27:28.459Z,12.68
2018-10-12T16:30:08.344Z,8.53
2018-10-12T16:32:41.808Z,5.85
2018-10-12T16:35:15.539Z,6.80
2018-10-12T16:37:49.216Z,11.60
2018-10-12T16:40:23.841Z,9.38
2018-10-12T16:42:57.500Z,7.92
2018-10-12T16:45:31.182Z,7.45
2018-10-12T16:48:11.906Z,8.60
2018-10-12T16:50:45.530Z,7.83
2018-10-12T16:53:18.973Z,4.30
2018-10-12T16:55:58.870Z,6.92
2018-10-12T16:58:39.009Z,8.98
2018-10-12T17:01:12.407Z,45.43
2018-10-12T17:03:52.230Z,9.60
2018-10-12T17:06:25.927Z,8.38
2018-10-12T17:09:05.960Z,11.50
2018-10-12T17:11:39.424Z,8.50
2018-10-12T17:14:13.009Z,7.05
2018-10-12T17:16:46.493Z,4.62
2018-10-12T17:19:26.153Z,7.80
2018-10-12T17:21:59.680Z,10.10
2018-10-12T17:24:39.678Z,5.70
2018-10-12T17:27:13.509Z,7.67
2018-10-12T17:29:47.887Z,9.28
2018-10-12T17:32:21.350Z,8.98
2018-10-12T17:34:54.927Z,12.28
2018-10-12T17:37:34.673Z,10.95
2018-10-12T17:40:09.834Z,6.80
2018-10-12T17:42:43.275Z,9.05
2018-10-12T17:45:16.802Z,14.28
2018-10-12T17:47:51.117Z,8.40
2018-10-12T17:50:30.923Z,12.07
2018-10-12T17:53:05.033Z,14.63
2018-10-12T17:55:38.551Z,10.80
2018-10-12T17:58:18.593Z,8.95
2018-10-12T18:00:52.154Z,11.93
2018-10-12T18:03:31.935Z,12.13
2018-10-12T18:06:11.776Z,11.60
2018-10-12T18:08:45.617Z,11.48
2018-10-12T18:11:20.153Z,8.28
2018-10-12T18:14:03.001Z,13.83
2018-10-12T18:16:36.494Z,9.05
2018-10-12T18:19:17.050Z,12.58
2018-10-12T18:21:50.572Z,9.23
2018-10-12T18:24:25.045Z,7.28
2018-10-12T18:27:04.988Z,15.20
2018-10-12T18:29:38.674Z,12.20
2018-10-12T18:32:18.593Z,10.82
2018-10-12T18:34:58.621Z,9.05
2018-10-12T18:37:32.184Z,11.30
2018-10-12T18:40:05.720Z,15.75
2018-10-12T18:42:39.267Z,9.15
2018-10-12T18:45:12.806Z,8.20
2018-10-12T18:47:52.899Z,13.78
2018-10-12T18:50:26.436Z,7.87
2018-10-12T18:52:59.946Z,7.25
2018-10-12T18:55:39.914Z,8.48
2018-10-12T18:58:13.449Z,11.03
2018-10-12T19:00:53.353Z,7.97
2018-10-12T19:03:26.744Z,7.33
2018-10-12T19:06:06.919Z,6.45
2018-10-12T19:08:40.512Z,9.60
2018-10-12T19:11:14.010Z,12.20
2018-10-12T19:13:53.906Z,7.30
2018-10-12T19:16:34.118Z,10.53
2018-10-12T19:19:08.768Z,5.87
2018-10-12T19:21:43.382Z,4.37
2018-10-12T19:24:16.954Z,10.78
2018-10-12T19:26:50.506Z,14.50
2018-10-12T19:29:24.216Z,7.37
2018-10-12T19:31:57.816Z,9.00
2018-10-12T19:34:37.477Z,13.20
2018-10-12T19:37:11.034Z,6.60
2018-10-12T19:39:44.706Z,8.60
2018-10-12T19:42:18.230Z,9.33
2018-10-12T19:44:58.136Z,9.90
2018-10-12T19:47:31.753Z,8.48
2018-10-12T19:50:05.531Z,10.20
2018-10-12T19:52:39.110Z,6.97
2018-10-12T19:55:13.745Z,8.53
2018-10-12T19:57:53.512Z,11.10
2018-10-12T20:00:27.130Z,10.95
2018-10-12T20:03:00.490Z,14.40
2018-10-12T20:05:40.288Z,5.67
2018-10-12T20:08:20.080Z,6.95
2018-10-12T20:10:58.974Z,8.93
2018-10-12T20:13:38.847Z,12.50
2018-10-12T20:16:12.461Z,5.95
2018-10-12T20:21:26.286Z,8.68
2018-10-12T20:23:59.889Z,11.12
2018-10-12T20:26:34.385Z,9.10
2018-10-12T20:29:20.978Z,8.58
2018-10-12T20:31:54.634Z,11.38
2018-10-12T20:34:29.099Z,6.80
2018-10-12T20:37:02.721Z,10.23
2018-10-12T20:39:36.306Z,14.85
2018-10-12T20:42:16.215Z,10.28
2018-10-12T20:44:56.342Z,8.35
2018-10-12T20:47:30.756Z,11.40
2018-10-12T20:50:04.196Z,9.70
2018-10-12T20:52:44.044Z,13.10
2018-10-12T20:55:17.588Z,8.40
2018-10-12T20:57:57.543Z,10.90
2018-10-12T21:00:31.223Z,9.38
2018-10-12T21:03:10.969Z,9.00
2018-10-12T21:05:44.582Z,8.15
2018-10-12T21:08:18.063Z,9.18
2018-10-12T21:10:51.659Z,7.40
2018-10-12T21:13:25.419Z,9.55
2018-10-12T21:16:05.640Z,11.57
2018-10-12T21:18:39.205Z,9.40
2018-10-12T21:21:12.892Z,11.57
2018-10-12T21:23:52.853Z,7.25
2018-10-12T21:26:27.361Z,7.12
2018-10-12T21:29:00.761Z,10.93
2018-10-12T21:31:34.382Z,10.33
2018-10-12T21:34:08.158Z,13.27
2018-10-12T21:36:41.633Z,16.35
2018-10-12T21:39:15.575Z,10.95
2018-10-12T21:41:49.078Z,13.37
2018-10-12T21:44:22.582Z,7.67
2018-10-12T21:46:56.302Z,15.65
2018-10-12T21:49:29.893Z,14.70
2018-10-12T21:52:03.571Z,11.23
2018-10-12T21:54:38.156Z,12.18
2018-10-12T21:57:11.722Z,8.93
2018-10-12T21:59:45.267Z,13.17
2018-10-12T22:02:20.561Z,12.73
2018-10-12T22:05:00.446Z,10.90
2018-10-12T22:07:34.052Z,6.60
2018-10-12T22:10:14.085Z,8.53
2018-10-12T22:12:47.835Z,10.93
2018-10-12T22:15:21.400Z,13.80
2018-10-12T22:17:54.982Z,15.93
2018-10-12T22:20:28.559Z,9.83
2018-10-12T22:23:08.563Z,8.75
2018-10-12T22:25:43.262Z,16.12
2018-10-12T22:28:16.860Z,11.43
2018-10-12T22:30:50.423Z,13.20
2018-10-12T22:33:25.791Z,8.53
2018-10-12T22:36:04.590Z,12.10
2018-10-12T22:38:40.247Z,12.23
2018-10-12T22:41:13.778Z,8.70
2018-10-12T22:43:47.354Z,11.97
2018-10-12T22:46:21.061Z,8.53
2018-10-12T22:48:54.734Z,13.35
2018-10-12T22:51:28.266Z,12.03
2018-10-12T22:54:01.712Z,6.80
2018-10-12T22:56:41.660Z,7.07
2018-10-12T22:59:16.122Z,12.43
2018-10-12T23:01:49.784Z,9.15
2018-10-12T23:04:23.478Z,11.53
2018-10-12T23:06:56.971Z,11.37
2018-10-12T23:09:36.782Z,13.17
2018-10-12T23:12:10.245Z,9.03
2018-10-12T23:14:43.676Z,14.50
2018-10-12T23:17:18.167Z,11.57
2018-10-12T23:19:52.861Z,16.90
2018-10-12T23:22:27.500Z,10.78
2018-10-12T23:25:01.192Z,10.37
2018-10-12T23:27:41.088Z,10.90
2018-10-12T23:30:15.734Z,12.93
2018-10-12T23:32:49.293Z,13.43
2018-10-12T23:35:29.135Z,11.60
2018-10-12T23:38:09.687Z,10.90
2018-10-12T23:40:43.185Z,12.60
2018-10-12T23:43:16.889Z,7.60
2018-10-12T23:45:50.486Z,13.87
2018-10-12T23:48:24.131Z,10.17
2018-10-12T23:51:01.816Z,10.67
2018-10-12T23:53:35.409Z,9.97
2018-10-12T23:56:10.116Z,8.73
2018-10-12T23:58:44.017Z,14.30
